Aérodrome :
LOGIN :

S'inscrire | Disclaimer

   EN    FR    IT 

 










Légende :    VFR   VFR Marginal   IFR   IFR Intensif   IFR Très Intensif
Visi : 
Plafond : 
>= 8 km
>= 3000ft
5 à 8 km
1000 à 3000 ft
1500m à 5 km
500 à 1000 ft
800 à 1500m
200 à 500 ft
< 800m
< 200 ft
Symboles :   Orages  Brouillard  Fortes neiges  Fortes précipitations  Vent > 20 kt
SIGMETs :   Divers  Orages  Givrage  Turbulence  Onde Orograph.  Cendres Volcan.







- Altitude de l'aérodrome : 13 ft
- Code IATA : SNR
- Voir les cartes d'approche


LFRZ - St-Nazaire

DERNIER METAR :
  • 181500Z AUTO 24011KT 9999 FEW008 BKN014 BKN021 19/16 Q1015 BECMG SCT020

METARs EXPIRÉS :
  • 181430Z AUTO 20011KT 9999 BKN009 BKN034 BKN044 19/17 Q1015 BECMG SCT020
  • 181400Z AUTO 22009KT 9999 FEW010 BKN024 BKN031 18/17 Q1015 NOSIG
  • 181330Z AUTO 25010KT 220V280 9999 SCT012 OVC019 18/16 Q1016 NOSIG
  • 181300Z AUTO 24010KT 9999 SCT011 OVC017 18/17 Q1016 TEMPO 4500 -RA OVC008
  • 181230Z AUTO 27011KT 6000 -RA BKN007 BKN014 BKN024 18/17 Q1016 TEMPO 4500 -RA BECMG SCT020

TAF TAF LFRZ
Valide du 18 à 12h jusqu'au 19 à 12h UTC


181100Z 1812/1912 24012KT 9999 BKN015
TEMPO 1812/1814 4500 -RA OVC008
BECMG 1814/1816 SCT020
BECMG 1903/1906 VRB03KT
BECMG 1909/1911 21011KT
Pas de NOTAMs connus pour ce terrain.



MET'MAP, la Météo Aéronautique d'un coup d'oeil ! - Copyright ORBIFLY Décembre 2007 - Disclaimer

ORBIFLY MET'MAP TEAM :

Programmation & Développement : Alexandra Zaïnal
Conception & Développement : Baudouin d'Aumeries
Co-Programmation & Développement : Marc-Olivier Méhu
Soutien technique & logistique : Manuel Goepfert

Contact : metmap@orbifly.com




SOURCES & CREDITS :

   NOAA